Time;durP1;ratioP1;P1;durP2;ratioP2;P2;SDS_P1;SDS_P2;PMS_P1;PMS_P2;Temp;Humidity;BMP_temperature;BMP_pressure;BME280_temperature;BME280_humidity;BME280_pressure;Samples;Min_cycle;Max_cycle;Signal;HPM_P1;HPM_P2
2022/12/19 00:01:35;;;;;;;;;19.33;19.00;;;;;;;;5059710;28;45393;-80
2022/12/19 00:04:02;;;;;;;;;24.33;21.33;;;;;;;;5057838;28;47057;-78
2022/12/19 00:06:28;;;;;;;;;23.33;20.67;;;;;;;;5059561;28;45479;-79
2022/12/19 00:08:54;;;;;;;;;19.67;19.67;;;;;;;;5059329;28;45272;-76
2022/12/19 00:11:20;;;;;;;;;19.67;17.33;;;;;;;;5059658;28;45284;-77
2022/12/19 00:13:45;;;;;;;;;16.00;16.00;;;;;;;;5059131;28;46000;-76
2022/12/19 00:16:12;;;;;;;;;18.67;18.67;;;;;;;;5059456;28;45619;-77
2022/12/19 00:18:38;;;;;;;;;18.67;18.00;;;;;;;;5057947;28;45493;-76
2022/12/19 00:21:04;;;;;;;;;21.67;19.00;;;;;;;;5057800;28;45905;-76
2022/12/19 00:23:30;;;;;;;;;0.33;0.33;;;;;;;;5059346;28;45295;-78
2022/12/19 00:26:05;;;;;;;;;18.67;17.33;;;;;;;;5059222;28;45302;-76
2022/12/19 00:28:30;;;;;;;;;19.00;17.67;;;;;;;;5059442;28;45327;-76
2022/12/19 00:30:58;;;;;;;;;22.00;17.67;;;;;;;;5059103;28;45681;-76
2022/12/19 00:33:23;;;;;;;;;22.00;19.67;;;;;;;;5058956;28;45288;-79
2022/12/19 00:35:48;;;;;;;;;19.33;19.33;;;;;;;;5058839;28;46412;-76
2022/12/19 00:38:14;;;;;;;;;18.33;17.33;;;;;;;;5057813;28;45453;-76
2022/12/19 00:40:39;;;;;;;;;16.33;15.00;;;;;;;;5059349;28;45273;-76
2022/12/19 00:43:04;;;;;;;;;18.33;16.67;;;;;;;;5058817;28;45409;-78
2022/12/19 00:45:29;;;;;;;;;19.33;18.00;;;;;;;;5059096;28;45383;-76
2022/12/19 00:47:54;;;;;;;;;18.67;17.00;;;;;;;;5058984;28;45221;-77
2022/12/19 00:50:20;;;;;;;;;20.67;19.00;;;;;;;;5058774;28;45538;-76
2022/12/19 00:52:45;;;;;;;;;16.00;14.67;;;;;;;;5058835;28;45306;-77
2022/12/19 00:55:10;;;;;;;;;18.67;18.00;;;;;;;;5057497;28;45272;-76
2022/12/19 00:57:35;;;;;;;;;18.67;18.33;;;;;;;;5059177;28;45364;-76
2022/12/19 01:00:00;;;;;;;;;19.33;17.33;;;;;;;;5059114;28;45380;-76
2022/12/19 01:02:26;;;;;;;;;22.00;19.67;;;;;;;;5058534;28;45508;-76
2022/12/19 01:04:51;;;;;;;;;11.67;10.67;;;;;;;;5058713;28;45382;-78
2022/12/19 01:07:16;;;;;;;;;15.00;13.00;;;;;;;;5057356;28;45325;-75
2022/12/19 01:09:41;;;;;;;;;18.67;15.67;;;;;;;;5058728;28;45472;-75
2022/12/19 01:14:51;;;;;;;;;17.00;17.00;;;;;;;;5062395;28;45287;-78
2022/12/19 01:17:17;;;;;;;;;18.67;16.67;;;;;;;;5048758;28;45322;-75
2022/12/19 01:19:42;;;;;;;;;17.67;17.33;;;;;;;;5061646;28;45308;-75
2022/12/19 01:22:09;;;;;;;;;17.67;16.00;;;;;;;;5062109;28;47313;-75
2022/12/19 01:24:34;;;;;;;;;17.00;13.33;;;;;;;;5061882;28;45355;-76
2022/12/19 01:26:59;;;;;;;;;15.00;14.00;;;;;;;;5062164;28;45396;-76
2022/12/19 01:29:25;;;;;;;;;16.33;14.33;;;;;;;;5060686;28;46125;-76
2022/12/19 01:31:50;;;;;;;;;17.33;16.00;;;;;;;;5061840;28;46358;-75
2022/12/19 01:34:15;;;;;;;;;16.00;16.00;;;;;;;;5061998;28;45310;-78
2022/12/19 01:36:40;;;;;;;;;13.67;11.00;;;;;;;;5062236;28;45267;-76
2022/12/19 01:39:06;;;;;;;;;13.00;12.67;;;;;;;;5061998;28;45306;-77
2022/12/19 01:41:31;;;;;;;;;14.33;14.33;;;;;;;;5061791;28;46181;-76
2022/12/19 01:43:58;;;;;;;;;13.33;13.33;;;;;;;;5061993;28;45273;-76
2022/12/19 01:46:29;;;;;;;;;14.00;14.00;;;;;;;;5061746;28;45411;-78
2022/12/19 01:48:55;;;;;;;;;14.67;14.67;;;;;;;;5061622;28;45337;-77
2022/12/19 01:51:22;;;;;;;;;13.00;13.00;;;;;;;;5062038;28;45362;-77
2022/12/19 01:53:57;;;;;;;;;16.67;15.00;;;;;;;;5061753;28;45326;-77
2022/12/19 01:56:28;;;;;;;;;12.33;12.33;;;;;;;;5061846;28;45662;-76
2022/12/19 01:58:55;;;;;;;;;17.33;17.00;;;;;;;;5060090;28;47296;-76
2022/12/19 02:01:21;;;;;;;;;13.33;12.33;;;;;;;;5060264;28;48194;-76
2022/12/19 02:03:46;;;;;;;;;13.33;13.33;;;;;;;;5061177;28;45255;-77
2022/12/19 02:06:14;;;;;;;;;12.00;11.33;;;;;;;;5061800;28;45267;-76
2022/12/19 02:08:40;;;;;;;;;14.00;13.33;;;;;;;;5061190;28;45223;-76
2022/12/19 02:11:05;;;;;;;;;11.00;11.00;;;;;;;;5061275;28;46125;-76
2022/12/19 02:13:30;;;;;;;;;17.33;17.33;;;;;;;;5059796;28;45325;-77
2022/12/19 02:16:07;;;;;;;;;17.00;15.67;;;;;;;;5061621;28;45317;-78
2022/12/19 02:18:44;;;;;;;;;17.33;15.00;;;;;;;;5061194;28;45488;-77
2022/12/19 02:21:13;;;;;;;;;15.67;13.67;;;;;;;;5061211;28;45337;-79
2022/12/19 02:24:03;;;;;;;;;14.00;14.00;;;;;;;;5060013;28;45288;-78
2022/12/19 02:26:36;;;;;;;;;13.00;13.00;;;;;;;;5060866;28;45678;-77
2022/12/19 02:29:20;;;;;;;;;12.33;12.00;;;;;;;;5059812;28;47147;-77
2022/12/19 02:31:48;;;;;;;;;11.00;11.00;;;;;;;;5060639;28;46385;-76
2022/12/19 02:34:13;;;;;;;;;13.67;13.67;;;;;;;;5060819;28;45412;-77
2022/12/19 02:36:40;;;;;;;;;12.67;10.67;;;;;;;;5059614;28;45353;-77
2022/12/19 02:39:16;;;;;;;;;13.33;12.33;;;;;;;;5059539;28;47401;-78
2022/12/19 02:41:45;;;;;;;;;12.00;12.00;;;;;;;;5060868;28;46401;-77
2022/12/19 02:44:14;;;;;;;;;13.33;11.67;;;;;;;;5060878;28;45445;-77
2022/12/19 02:46:41;;;;;;;;;11.67;11.33;;;;;;;;5060777;28;45310;-77
2022/12/19 02:49:06;;;;;;;;;12.67;11.00;;;;;;;;5059110;28;46306;-77
2022/12/19 02:51:31;;;;;;;;;14.67;13.33;;;;;;;;5060680;28;46477;-77
2022/12/19 02:53:57;;;;;;;;;12.33;12.33;;;;;;;;5059188;28;45299;-76
2022/12/19 02:56:31;;;;;;;;;12.00;10.67;;;;;;;;5061062;28;45217;-76
2022/12/19 02:58:56;;;;;;;;;12.00;12.00;;;;;;;;5059225;28;47244;-76
2022/12/19 03:01:38;;;;;;;;;12.00;11.00;;;;;;;;5060602;28;45358;-79
2022/12/19 03:04:22;;;;;;;;;13.67;11.00;;;;;;;;5060444;28;46468;-79
2022/12/19 03:07:08;;;;;;;;;17.67;15.33;;;;;;;;5060292;28;45524;-77
2022/12/19 03:09:39;;;;;;;;;11.67;10.00;;;;;;;;5059351;28;45899;-77
2022/12/19 03:12:06;;;;;;;;;12.67;12.00;;;;;;;;5060342;28;45504;-77
2022/12/19 03:14:32;;;;;;;;;13.00;13.00;;;;;;;;5060399;28;45359;-77
2022/12/19 03:17:01;;;;;;;;;12.33;11.33;;;;;;;;5058873;28;45305;-76
2022/12/19 03:19:26;;;;;;;;;11.00;10.67;;;;;;;;5060176;28;45335;-76
2022/12/19 03:21:52;;;;;;;;;12.33;12.33;;;;;;;;5058619;28;48468;-77
2022/12/19 03:24:17;;;;;;;;;14.33;13.33;;;;;;;;5060374;28;45212;-77
2022/12/19 03:26:55;;;;;;;;;12.67;12.33;;;;;;;;5060080;28;45247;-77
2022/12/19 03:29:26;;;;;;;;;11.00;11.00;;;;;;;;5060251;28;45217;-76
2022/12/19 03:31:52;;;;;;;;;14.00;12.33;;;;;;;;5060124;28;46156;-76
2022/12/19 03:34:20;;;;;;;;;15.00;14.00;;;;;;;;5059589;28;45367;-77
2022/12/19 03:36:48;;;;;;;;;12.00;11.00;;;;;;;;5060176;28;45240;-77
2022/12/19 03:39:15;;;;;;;;;12.00;10.33;;;;;;;;5059552;28;45449;-77
2022/12/19 03:44:27;;;;;;;;;10.33;10.33;;;;;;;;5059731;28;45385;-76
2022/12/19 03:47:28;;;;;;;;;14.67;11.33;;;;;;;;5059884;28;45234;-77
2022/12/19 03:49:53;;;;;;;;;14.00;11.67;;;;;;;;5057283;28;45411;-76
2022/12/19 03:52:25;;;;;;;;;10.33;9.33;;;;;;;;5057308;28;45381;-77
2022/12/19 03:54:54;;;;;;;;;11.33;11.33;;;;;;;;5059989;28;45388;-76
2022/12/19 03:57:24;;;;;;;;;12.67;11.00;;;;;;;;5059789;28;45369;-76
2022/12/19 04:00:00;;;;;;;;;11.00;11.00;;;;;;;;5059681;28;45722;-76
2022/12/19 04:02:27;;;;;;;;;12.00;10.67;;;;;;;;5058118;28;47089;-75
2022/12/19 04:04:55;;;;;;;;;13.33;12.00;;;;;;;;5057871;28;45387;-76
2022/12/19 04:07:21;;;;;;;;;10.67;9.00;;;;;;;;5059447;28;45448;-76
2022/12/19 04:09:48;;;;;;;;;9.00;9.00;;;;;;;;5058245;28;46838;-76
2022/12/19 04:12:18;;;;;;;;;8.00;8.00;;;;;;;;5059205;28;46389;-79
2022/12/19 04:14:44;;;;;;;;;9.67;9.67;;;;;;;;5059584;28;45350;-79
2022/12/19 04:17:12;;;;;;;;;15.33;13.33;;;;;;;;5059425;28;45564;-78
2022/12/19 04:19:42;;;;;;;;;12.00;10.67;;;;;;;;5057734;28;46044;-78
2022/12/19 04:22:14;;;;;;;;;12.33;11.00;;;;;;;;5057623;28;48632;-78
2022/12/19 04:24:41;;;;;;;;;11.00;9.67;;;;;;;;5057646;28;45454;-78
2022/12/19 04:27:08;;;;;;;;;11.33;11.00;;;;;;;;5059567;28;45355;-79
2022/12/19 04:29:35;;;;;;;;;12.67;12.00;;;;;;;;5058916;28;45449;-76
2022/12/19 04:32:02;;;;;;;;;13.00;13.00;;;;;;;;5059260;28;45375;-79
2022/12/19 04:34:27;;;;;;;;;13.00;12.33;;;;;;;;5058692;28;45370;-78
2022/12/19 04:36:52;;;;;;;;;9.67;9.67;;;;;;;;5059360;28;45310;-78
2022/12/19 04:39:17;;;;;;;;;7.00;7.00;;;;;;;;5058833;28;45438;-79
2022/12/19 04:41:43;;;;;;;;;10.67;10.67;;;;;;;;5057957;28;46959;-76
2022/12/19 04:44:08;;;;;;;;;11.33;10.00;;;;;;;;5057625;28;45765;-79
2022/12/19 04:46:33;;;;;;;;;11.00;11.00;;;;;;;;5057262;28;45421;-79
2022/12/19 04:48:58;;;;;;;;;10.33;10.33;;;;;;;;5058690;28;45196;-79
2022/12/19 04:51:23;;;;;;;;;9.33;9.33;;;;;;;;5059207;28;45512;-79
2022/12/19 04:53:49;;;;;;;;;11.00;11.00;;;;;;;;5058906;28;45335;-79
2022/12/19 04:56:14;;;;;;;;;11.67;9.67;;;;;;;;5059272;28;45240;-78
2022/12/19 04:58:39;;;;;;;;;14.00;12.33;;;;;;;;5057291;28;45904;-79
2022/12/19 05:01:05;;;;;;;;;11.00;11.00;;;;;;;;5058966;28;45326;-79
2022/12/19 05:03:31;;;;;;;;;12.33;10.33;;;;;;;;5058709;28;45589;-79
2022/12/19 05:06:04;;;;;;;;;10.00;10.00;;;;;;;;5059066;28;45334;-79
2022/12/19 05:08:29;;;;;;;;;7.33;7.33;;;;;;;;5057132;28;47485;-77
2022/12/19 05:10:57;;;;;;;;;11.00;9.00;;;;;;;;5058627;28;45440;-78
2022/12/19 05:13:22;;;;;;;;;11.00;8.00;;;;;;;;5057259;28;45576;-79
2022/12/19 05:15:54;;;;;;;;;12.33;10.67;;;;;;;;5059124;28;45295;-78
2022/12/19 05:18:19;;;;;;;;;8.67;8.67;;;;;;;;5058411;28;45344;-79
2022/12/19 05:20:47;;;;;;;;;12.33;11.67;;;;;;;;5058399;28;45350;-78
2022/12/19 05:23:12;;;;;;;;;10.33;10.33;;;;;;;;5057018;28;45283;-78
2022/12/19 05:25:37;;;;;;;;;12.00;8.33;;;;;;;;5058724;28;45430;-78
2022/12/19 05:28:02;;;;;;;;;12.33;11.33;;;;;;;;5058487;28;45532;-76
2022/12/19 05:30:27;;;;;;;;;15.00;11.33;;;;;;;;5058625;28;45453;-79
2022/12/19 05:32:53;;;;;;;;;13.00;13.00;;;;;;;;5057042;28;45521;-79
2022/12/19 05:35:18;;;;;;;;;10.00;8.67;;;;;;;;5058742;28;45856;-79
2022/12/19 05:37:43;;;;;;;;;12.00;9.67;;;;;;;;5056859;28;46204;-79
2022/12/19 05:40:08;;;;;;;;;7.67;7.67;;;;;;;;5057022;28;47049;-79
2022/12/19 05:42:34;;;;;;;;;10.00;10.00;;;;;;;;5057163;28;45746;-76
2022/12/19 05:44:59;;;;;;;;;12.00;10.00;;;;;;;;5058427;28;45342;-79
2022/12/19 05:47:24;;;;;;;;;11.50;10.50;;;;;;;;5058100;28;45451;-79
2022/12/19 05:49:50;;;;;;;;;9.33;9.33;;;;;;;;5058019;28;45803;-79
2022/12/19 05:52:15;;;;;;;;;9.67;9.67;;;;;;;;5058280;28;45311;-79
2022/12/19 05:54:40;;;;;;;;;7.00;7.00;;;;;;;;5058629;28;45335;-79
2022/12/19 05:57:05;;;;;;;;;11.67;11.00;;;;;;;;5056712;28;45814;-79
2022/12/19 05:59:31;;;;;;;;;10.00;10.00;;;;;;;;5061608;28;46655;-79
2022/12/19 06:01:56;;;;;;;;;8.33;7.67;;;;;;;;5061306;28;45268;-79
2022/12/19 06:04:21;;;;;;;;;9.00;7.67;;;;;;;;5061786;28;45591;-79
2022/12/19 06:06:46;;;;;;;;;7.33;4.67;;;;;;;;5061463;28;45469;-79
2022/12/19 06:09:11;;;;;;;;;11.67;10.67;;;;;;;;5061439;28;46072;-77
2022/12/19 06:11:37;;;;;;;;;11.00;10.00;;;;;;;;5061419;28;45286;-80
2022/12/19 06:14:02;;;;;;;;;10.33;8.67;;;;;;;;5060100;28;45480;-79
2022/12/19 06:16:27;;;;;;;;;10.33;6.67;;;;;;;;5061254;28;45238;-76
2022/12/19 06:18:52;;;;;;;;;8.00;7.00;;;;;;;;5060937;28;45527;-79
2022/12/19 06:21:19;;;;;;;;;7.00;7.00;;;;;;;;5055718;28;45327;-79
2022/12/19 06:23:44;;;;;;;;;11.67;8.33;;;;;;;;5049168;28;45315;-79
2022/12/19 06:26:10;;;;;;;;;7.67;7.67;;;;;;;;5054781;28;45201;-79
2022/12/19 06:28:36;;;;;;;;;5.67;5.33;;;;;;;;5056408;28;47142;-79
2022/12/19 06:31:02;;;;;;;;;11.67;11.00;;;;;;;;5051572;28;45822;-79
2022/12/19 06:33:28;;;;;;;;;9.33;8.33;;;;;;;;5057109;28;45803;-77
2022/12/19 06:36:04;;;;;;;;;7.33;7.00;;;;;;;;5060974;28;45323;-79
2022/12/19 06:38:29;;;;;;;;;10.33;9.33;;;;;;;;5048175;28;46459;-79
2022/12/19 06:43:39;;;;;;;;;7.67;7.33;;;;;;;;5058519;28;45374;-79
2022/12/19 06:46:04;;;;;;;;;9.67;9.67;;;;;;;;5059115;28;46769;-81
2022/12/19 06:48:30;;;;;;;;;9.33;9.33;;;;;;;;5054489;28;45391;-80
2022/12/19 06:50:55;;;;;;;;;8.33;8.33;;;;;;;;5055893;28;45662;-79
2022/12/19 06:53:20;;;;;;;;;11.00;10.00;;;;;;;;5051902;28;45287;-80
2022/12/19 06:55:46;;;;;;;;;11.67;9.33;;;;;;;;5060705;28;45497;-80
2022/12/19 06:58:11;;;;;;;;;7.00;7.00;;;;;;;;5060836;28;45266;-80
2022/12/19 07:00:36;;;;;;;;;7.00;6.00;;;;;;;;5060495;28;45326;-78
2022/12/19 07:03:03;;;;;;;;;9.00;9.00;;;;;;;;5053034;28;47212;-80
2022/12/19 07:05:28;;;;;;;;;9.67;9.33;;;;;;;;5053493;28;45951;-78
2022/12/19 07:07:54;;;;;;;;;11.33;9.67;;;;;;;;5051877;28;48054;-78
2022/12/19 07:10:19;;;;;;;;;10.00;8.67;;;;;;;;5060390;28;45247;-78
2022/12/19 07:12:44;;;;;;;;;8.00;8.00;;;;;;;;5057615;28;45290;-78
2022/12/19 07:15:09;;;;;;;;;9.67;7.33;;;;;;;;5055599;28;45251;-78
2022/12/19 07:17:35;;;;;;;;;9.67;9.67;;;;;;;;5054253;28;45532;-77
2022/12/19 07:20:00;;;;;;;;;13.33;11.33;;;;;;;;5046944;28;45523;-78
2022/12/19 07:22:28;;;;;;;;;13.00;12.00;;;;;;;;5053921;28;45141;-78
2022/12/19 07:24:54;;;;;;;;;11.67;10.67;;;;;;;;5057727;28;47348;-77
2022/12/19 07:27:21;;;;;;;;;11.67;10.67;;;;;;;;5060271;28;46396;-79
2022/12/19 07:29:46;;;;;;;;;12.00;10.67;;;;;;;;5060153;28;45533;-77
2022/12/19 07:32:11;;;;;;;;;9.67;9.67;;;;;;;;5060360;28;45460;-78
2022/12/19 07:34:37;;;;;;;;;9.67;9.67;;;;;;;;5060075;28;45516;-77
2022/12/19 07:37:02;;;;;;;;;12.67;11.00;;;;;;;;5047442;28;48076;-78
2022/12/19 07:39:27;;;;;;;;;12.67;11.67;;;;;;;;5049704;28;45461;-78
2022/12/19 07:41:52;;;;;;;;;9.00;9.00;;;;;;;;5056960;28;45326;-78
2022/12/19 07:44:18;;;;;;;;;9.00;8.67;;;;;;;;5060181;28;45623;-74
2022/12/19 07:46:43;;;;;;;;;11.67;11.00;;;;;;;;5046151;28;47322;-77
2022/12/19 07:49:09;;;;;;;;;8.33;8.33;;;;;;;;5042914;28;45496;-78
2022/12/19 07:51:34;;;;;;;;;13.67;13.67;;;;;;;;5038948;28;45482;-77
2022/12/19 07:53:59;;;;;;;;;12.00;12.00;;;;;;;;5058273;28;45609;-77
2022/12/19 07:56:24;;;;;;;;;12.00;11.00;;;;;;;;5058264;28;46947;-77
2022/12/19 07:58:50;;;;;;;;;8.67;8.67;;;;;;;;5058390;28;45909;-77
2022/12/19 08:01:15;;;;;;;;;16.00;14.33;;;;;;;;5059695;28;45276;-77
2022/12/19 08:03:40;;;;;;;;;14.00;13.33;;;;;;;;5059187;28;45321;-77
2022/12/19 08:06:07;;;;;;;;;14.33;13.00;;;;;;;;5071155;28;47309;-76
2022/12/19 08:08:33;;;;;;;;;11.00;11.00;;;;;;;;5058893;28;45481;-77
2022/12/19 08:11:08;;;;;;;;;8.67;8.67;;;;;;;;5059496;28;45301;-76
2022/12/19 08:13:34;;;;;;;;;10.00;10.00;;;;;;;;5052544;28;45465;-77
2022/12/19 08:16:00;;;;;;;;;10.00;10.00;;;;;;;;5044556;28;46481;-78
2022/12/19 08:18:25;;;;;;;;;9.67;8.33;;;;;;;;5050809;28;45407;-77
2022/12/19 08:20:50;;;;;;;;;8.33;8.33;;;;;;;;5041672;28;45378;-77
2022/12/19 08:23:15;;;;;;;;;13.00;10.00;;;;;;;;5050461;28;46978;-77
2022/12/19 08:25:41;;;;;;;;;12.67;10.67;;;;;;;;5043796;28;45493;-77
2022/12/19 08:28:06;;;;;;;;;7.67;7.67;;;;;;;;5053919;28;45447;-77
2022/12/19 08:30:31;;;;;;;;;7.00;7.00;;;;;;;;5058989;28;45307;-77
2022/12/19 08:32:56;;;;;;;;;7.00;7.00;;;;;;;;5057070;28;47338;-76
2022/12/19 08:35:21;;;;;;;;;7.00;7.00;;;;;;;;5057180;28;46938;-76
2022/12/19 08:37:47;;;;;;;;;10.00;10.00;;;;;;;;5058158;28;45271;-77
2022/12/19 08:40:12;;;;;;;;;10.33;9.33;;;;;;;;5058406;28;45484;-76
2022/12/19 08:42:37;;;;;;;;;7.00;7.00;;;;;;;;5058854;28;45561;-76
2022/12/19 08:45:02;;;;;;;;;10.00;9.33;;;;;;;;5054769;28;46178;-76
2022/12/19 08:47:28;;;;;;;;;10.33;10.33;;;;;;;;5042039;28;45972;-77
2022/12/19 08:49:53;;;;;;;;;9.33;9.33;;;;;;;;5051943;28;45416;-77
2022/12/19 08:52:18;;;;;;;;;12.00;10.33;;;;;;;;5053350;28;45622;-76
2022/12/19 08:54:44;;;;;;;;;8.00;7.67;;;;;;;;5058503;28;45565;-76
2022/12/19 08:57:09;;;;;;;;;12.67;12.67;;;;;;;;5058218;28;45341;-77
2022/12/19 08:59:34;;;;;;;;;11.33;10.00;;;;;;;;5047844;28;45317;-77
2022/12/19 09:01:59;;;;;;;;;12.33;10.67;;;;;;;;5058589;28;45413;-77
2022/12/19 09:04:25;;;;;;;;;9.67;9.67;;;;;;;;5057297;28;47198;-76
2022/12/19 09:06:50;;;;;;;;;9.33;9.33;;;;;;;;5056384;28;45685;-77
2022/12/19 09:09:15;;;;;;;;;9.33;9.33;;;;;;;;5058767;28;45351;-77
2022/12/19 09:11:40;;;;;;;;;11.00;9.00;;;;;;;;5058525;28;45251;-77
2022/12/19 09:14:06;;;;;;;;;9.33;9.33;;;;;;;;5055638;28;48399;-77
2022/12/19 09:16:31;;;;;;;;;11.33;9.00;;;;;;;;5048977;28;45261;-77
2022/12/19 09:18:57;;;;;;;;;12.33;9.67;;;;;;;;5040358;28;45410;-76
2022/12/19 09:21:23;;;;;;;;;8.33;8.33;;;;;;;;5057558;28;45417;-76
2022/12/19 09:23:52;;;;;;;;;8.67;7.33;;;;;;;;5057171;28;47814;-77
2022/12/19 09:26:18;;;;;;;;;10.33;7.00;;;;;;;;5055173;28;45357;-77
2022/12/19 09:28:44;;;;;;;;;8.33;8.33;;;;;;;;5047625;28;45373;-79
2022/12/19 09:31:10;;;;;;;;;11.00;11.00;;;;;;;;5048255;28;46569;-76
2022/12/19 09:33:35;;;;;;;;;11.00;10.33;;;;;;;;5055656;28;45892;-77
2022/12/19 09:36:01;;;;;;;;;11.00;11.00;;;;;;;;5044104;28;45726;-77
2022/12/19 09:38:28;;;;;;;;;13.00;11.00;;;;;;;;5051617;28;45393;-79
2022/12/19 09:41:18;;;;;;;;;6.00;6.00;;;;;;;;5061600;28;45333;-77
2022/12/19 09:43:52;;;;;;;;;9.67;9.67;;;;;;;;5052011;28;48827;-77
2022/12/19 09:46:18;;;;;;;;;9.67;9.67;;;;;;;;5055030;28;45485;-77
2022/12/19 09:48:51;;;;;;;;;12.33;12.00;;;;;;;;5060973;28;45474;-78
2022/12/19 09:51:25;;;;;;;;;8.00;7.67;;;;;;;;5060834;28;45504;-78
2022/12/19 09:54:09;;;;;;;;;9.67;9.33;;;;;;;;5047447;28;46052;-78
2022/12/19 09:56:37;;;;;;;;;7.67;7.67;;;;;;;;5057343;28;45369;-78
2022/12/19 09:59:21;;;;;;;;;9.33;8.00;;;;;;;;5057774;28;45430;-80
2022/12/19 10:01:54;;;;;;;;;10.33;10.33;;;;;;;;5056694;28;47038;-78
2022/12/19 10:04:20;;;;;;;;;9.33;9.33;;;;;;;;5058448;28;47388;-79
2022/12/19 10:06:46;;;;;;;;;10.67;10.67;;;;;;;;5059555;28;46127;-80
2022/12/19 10:09:12;;;;;;;;;10.67;10.00;;;;;;;;5060661;28;45421;-78
2022/12/19 10:11:49;;;;;;;;;9.33;8.00;;;;;;;;5060933;28;45326;-79
2022/12/19 10:14:35;;;;;;;;;8.33;8.33;;;;;;;;5054953;28;45428;-78
2022/12/19 10:17:26;;;;;;;;;13.33;11.00;;;;;;;;5060903;28;45537;-80
2022/12/19 10:19:57;;;;;;;;;11.00;10.33;;;;;;;;5060727;28;45450;-78
2022/12/19 10:22:26;;;;;;;;;9.67;8.67;;;;;;;;5058745;28;45365;-78
2022/12/19 10:25:17;;;;;;;;;9.33;9.33;;;;;;;;5058767;28;46427;-78
2022/12/19 10:27:52;;;;;;;;;7.00;7.00;;;;;;;;5053337;28;45397;-78
2022/12/19 10:30:21;;;;;;;;;7.67;7.33;;;;;;;;5056611;28;45338;-79
2022/12/19 10:32:50;;;;;;;;;8.00;8.00;;;;;;;;5059479;28;45207;-79
2022/12/19 10:35:16;;;;;;;;;12.33;8.33;;;;;;;;5054534;28;47434;-79
2022/12/19 10:37:58;;;;;;;;;10.33;9.00;;;;;;;;5055752;28;45382;-77
2022/12/19 10:40:31;;;;;;;;;8.33;6.33;;;;;;;;5058470;28;45330;-78
2022/12/19 10:42:56;;;;;;;;;7.33;7.00;;;;;;;;5050091;28;45406;-78
2022/12/19 10:45:22;;;;;;;;;10.00;10.00;;;;;;;;5049432;28;45626;-78
2022/12/19 10:47:54;;;;;;;;;8.00;8.00;;;;;;;;5056365;28;45248;-78
2022/12/19 10:50:21;;;;;;;;;8.00;8.00;;;;;;;;5047970;28;45484;-79
2022/12/19 10:52:51;;;;;;;;;9.00;9.00;;;;;;;;5049916;28;45304;-79
2022/12/19 10:55:34;;;;;;;;;9.33;9.33;;;;;;;;5058509;28;45431;-79
2022/12/19 10:58:09;;;;;;;;;8.00;6.00;;;;;;;;5043000;28;45456;-78
2022/12/19 11:00:34;;;;;;;;;10.00;9.00;;;;;;;;5055588;28;45445;-80
2022/12/19 11:03:12;;;;;;;;;10.33;9.33;;;;;;;;5043168;28;45307;-79
2022/12/19 11:05:45;;;;;;;;;8.00;8.00;;;;;;;;5055797;28;47431;-78
2022/12/19 11:08:14;;;;;;;;;8.33;8.33;;;;;;;;5059272;28;45701;-79
2022/12/19 11:10:44;;;;;;;;;9.67;9.67;;;;;;;;5057148;28;45307;-79
2022/12/19 11:13:19;;;;;;;;;10.67;9.67;;;;;;;;5055076;28;46314;-79
2022/12/19 11:15:48;;;;;;;;;8.33;8.33;;;;;;;;5056496;28;45326;-79
2022/12/19 11:18:15;;;;;;;;;8.00;8.00;;;;;;;;5053201;28;45438;-78
2022/12/19 11:20:51;;;;;;;;;7.00;7.00;;;;;;;;5059281;28;45456;-77
2022/12/19 11:23:16;;;;;;;;;7.33;7.33;;;;;;;;5059872;28;45368;-78
2022/12/19 11:25:42;;;;;;;;;8.00;6.67;;;;;;;;5060236;28;45603;-78
2022/12/19 11:28:18;;;;;;;;;12.00;10.67;;;;;;;;5060100;28;45745;-79
2022/12/19 11:30:53;;;;;;;;;10.33;8.67;;;;;;;;5060483;28;45521;-78
2022/12/19 11:33:18;;;;;;;;;11.00;10.67;;;;;;;;5057596;28;45248;-78
2022/12/19 11:35:45;;;;;;;;;8.33;7.67;;;;;;;;5050502;28;47293;-78
2022/12/19 11:38:13;;;;;;;;;11.00;9.33;;;;;;;;5058539;28;45381;-79
2022/12/19 11:40:41;;;;;;;;;7.33;7.33;;;;;;;;5060224;28;45314;-78
2022/12/19 11:43:41;;;;;;;;;10.00;8.33;;;;;;;;5059969;28;45316;-79
2022/12/19 11:46:22;;;;;;;;;8.00;8.00;;;;;;;;5057545;28;45437;-79
2022/12/19 11:48:58;;;;;;;;;7.00;7.00;;;;;;;;5054515;28;45351;-77
2022/12/19 11:51:46;;;;;;;;;8.33;6.33;;;;;;;;5044005;28;45391;-78
2022/12/19 11:54:18;;;;;;;;;7.00;7.00;;;;;;;;5044955;28;46702;-77
2022/12/19 11:56:43;;;;;;;;;9.00;9.00;;;;;;;;5044860;28;45800;-77
2022/12/19 11:59:20;;;;;;;;;7.00;7.00;;;;;;;;5049804;28;45360;-80
2022/12/19 12:01:51;;;;;;;;;8.67;8.33;;;;;;;;5053439;28;45259;-79
2022/12/19 12:04:16;;;;;;;;;9.00;9.00;;;;;;;;5057409;28;47233;-78
2022/12/19 12:06:46;;;;;;;;;9.33;9.33;;;;;;;;5059240;28;46276;-79
2022/12/19 12:09:16;;;;;;;;;7.33;7.33;;;;;;;;5059270;28;45494;-79
2022/12/19 12:11:51;;;;;;;;;7.00;6.67;;;;;;;;5059824;28;45302;-78
2022/12/19 12:14:18;;;;;;;;;8.00;6.67;;;;;;;;5059157;28;45529;-78
2022/12/19 12:17:04;;;;;;;;;8.00;8.00;;;;;;;;5059344;28;45345;-79
2022/12/19 12:19:35;;;;;;;;;7.33;6.67;;;;;;;;5045556;28;45271;-77
2022/12/19 12:22:10;;;;;;;;;8.00;8.00;;;;;;;;5059451;28;45394;-77
2022/12/19 12:24:53;;;;;;;;;8.00;8.00;;;;;;;;5059431;28;45477;-77
2022/12/19 12:27:31;;;;;;;;;9.67;9.33;;;;;;;;5059032;28;45368;-77
2022/12/19 12:30:10;;;;;;;;;9.33;8.00;;;;;;;;5047318;28;45534;-77
2022/12/19 12:32:38;;;;;;;;;9.67;8.00;;;;;;;;5057463;28;45390;-78
2022/12/19 12:35:09;;;;;;;;;9.33;7.00;;;;;;;;5052448;28;45517;-77
2022/12/19 12:37:54;;;;;;;;;8.00;8.00;;;;;;;;5054424;28;46204;-78
2022/12/19 12:40:25;;;;;;;;;8.67;8.67;;;;;;;;5043461;28;45252;-78
2022/12/19 12:42:59;;;;;;;;;9.33;8.00;;;;;;;;5046384;28;45393;-78
2022/12/19 12:45:26;;;;;;;;;9.00;8.67;;;;;;;;5049242;28;45577;-79
2022/12/19 12:47:54;;;;;;;;;7.00;6.00;;;;;;;;5053682;28;46912;-78
2022/12/19 12:50:23;;;;;;;;;9.00;9.00;;;;;;;;5056795;28;46069;-77
2022/12/19 12:53:08;;;;;;;;;5.67;5.67;;;;;;;;5057445;28;45374;-76
2022/12/19 12:55:39;;;;;;;;;12.00;9.67;;;;;;;;5058041;28;45446;-77
2022/12/19 12:58:04;;;;;;;;;9.33;9.33;;;;;;;;5057727;28;46018;-76
2022/12/19 13:00:31;;;;;;;;;7.00;7.00;;;;;;;;5058028;28;45342;-77
2022/12/19 13:02:56;;;;;;;;;8.00;8.00;;;;;;;;5048058;28;45466;-78
2022/12/19 13:05:24;;;;;;;;;7.33;7.33;;;;;;;;5047925;28;46082;-77
2022/12/19 13:07:50;;;;;;;;;7.00;7.00;;;;;;;;5053893;28;47318;-78
2022/12/19 13:10:17;;;;;;;;;8.33;7.67;;;;;;;;5049511;28;45516;-77
2022/12/19 13:13:00;;;;;;;;;7.00;7.00;;;;;;;;5055644;28;45355;-78
2022/12/19 13:15:30;;;;;;;;;7.00;7.00;;;;;;;;5049208;28;46286;-78
2022/12/19 13:17:55;;;;;;;;;5.33;5.33;;;;;;;;5050934;28;46979;-78
2022/12/19 13:20:24;;;;;;;;;7.67;7.00;;;;;;;;5048652;28;45496;-77
2022/12/19 13:23:18;;;;;;;;;6.00;6.00;;;;;;;;5046538;28;45453;-78
2022/12/19 13:25:43;;;;;;;;;11.00;9.00;;;;;;;;5052884;28;45437;-77
2022/12/19 13:28:13;;;;;;;;;9.00;8.33;;;;;;;;5048706;28;45348;-77
2022/12/19 13:30:58;;;;;;;;;9.67;9.67;;;;;;;;5048092;28;45579;-76
2022/12/19 13:33:24;;;;;;;;;12.00;11.33;;;;;;;;5048574;28;45520;-78
2022/12/19 13:35:49;;;;;;;;;10.00;10.00;;;;;;;;5052221;28;45404;-77
2022/12/19 13:38:22;;;;;;;;;8.67;8.67;;;;;;;;5061321;28;45231;-76
2022/12/19 13:40:57;;;;;;;;;9.33;9.00;;;;;;;;5052999;28;45392;-77
2022/12/19 13:46:35;;;;;;;;;10.00;10.00;;;;;;;;5046752;28;45455;-78
2022/12/19 13:49:07;;;;;;;;;9.67;9.67;;;;;;;;5060196;28;45322;-78
2022/12/19 13:51:46;;;;;;;;;9.67;9.33;;;;;;;;5060529;28;45539;-78
2022/12/19 13:54:33;;;;;;;;;8.00;8.00;;;;;;;;5057339;28;45413;-78
2022/12/19 13:56:59;;;;;;;;;8.00;8.00;;;;;;;;5043896;28;46247;-78
2022/12/19 13:59:26;;;;;;;;;7.67;7.67;;;;;;;;5051706;28;47271;-78
2022/12/19 14:01:52;;;;;;;;;9.33;8.00;;;;;;;;5049619;28;45448;-78
2022/12/19 14:04:28;;;;;;;;;7.67;7.67;;;;;;;;5051675;28;45442;-80
2022/12/19 14:06:59;;;;;;;;;7.67;7.67;;;;;;;;5053510;28;45402;-78
2022/12/19 14:09:24;;;;;;;;;7.67;7.67;;;;;;;;5052185;28;46032;-78
2022/12/19 14:11:50;;;;;;;;;9.00;8.33;;;;;;;;5053543;28;45915;-78
2022/12/19 14:17:07;;;;;;;;;7.33;7.00;;;;;;;;5059757;28;45579;-77
2022/12/19 14:19:38;;;;;;;;;8.33;8.33;;;;;;;;5055819;28;46283;-77
2022/12/19 14:22:18;;;;;;;;;9.00;8.00;;;;;;;;5059941;28;45353;-77
2022/12/19 14:24:53;;;;;;;;;7.00;7.00;;;;;;;;5057884;28;45402;-77
2022/12/19 14:27:22;;;;;;;;;9.33;9.33;;;;;;;;5058408;28;45700;-78
2022/12/19 14:29:52;;;;;;;;;9.00;8.00;;;;;;;;5048218;28;46190;-78
2022/12/19 14:32:18;;;;;;;;;8.00;7.67;;;;;;;;5049512;28;46185;-76
2022/12/19 14:34:44;;;;;;;;;7.67;7.67;;;;;;;;5050270;28;45461;-77
2022/12/19 14:37:26;;;;;;;;;8.33;8.33;;;;;;;;5051089;28;46226;-79
2022/12/19 14:39:56;;;;;;;;;8.00;8.00;;;;;;;;5058445;28;45590;-78
2022/12/19 14:45:24;;;;;;;;;4.00;3.00;;;;;;;;5057657;28;45801;-78
2022/12/19 14:47:49;;;;;;;;;7.00;7.00;;;;;;;;5057334;28;47676;-79
2022/12/19 14:50:44;;;;;;;;;8.33;7.00;;;;;;;;5051444;28;47155;-77
2022/12/19 14:53:20;;;;;;;;;8.00;7.67;;;;;;;;5053144;28;45478;-78
2022/12/19 14:55:47;;;;;;;;;10.00;9.00;;;;;;;;5050003;28;46375;-77